createdAt,value
2022-11-22T00:01:04.497Z,99353.06
2022-11-22T00:11:09.185Z,99351.38
2022-11-22T00:21:10.777Z,99353.81
2022-11-22T00:31:13.431Z,99355.63
2022-11-22T00:41:15.192Z,99345.16
2022-11-22T00:51:16.857Z,99347.00
2022-11-22T01:01:20.529Z,99345.38
2022-11-22T01:11:22.401Z,99344.50
2022-11-22T01:21:29.164Z,99348.72
2022-11-22T01:31:31.894Z,99335.16
2022-11-22T01:41:34.792Z,99317.31
2022-11-22T01:51:40.457Z,99330.84
2022-11-22T02:01:43.733Z,99319.78
2022-11-22T02:11:56.175Z,99319.97
2022-11-22T02:22:07.815Z,99308.28
2022-11-22T02:32:17.606Z,99321.19
2022-11-22T02:42:20.648Z,99292.38
2022-11-22T02:52:22.449Z,99284.75
2022-11-22T03:02:24.124Z,99304.94
2022-11-22T03:12:31.723Z,99297.38
2022-11-22T03:22:33.702Z,99299.41
2022-11-22T03:32:36.308Z,99287.47
2022-11-22T03:42:37.911Z,99288.19
2022-11-22T03:52:39.567Z,99288.47
2022-11-22T04:02:42.250Z,99277.75
2022-11-22T04:12:48.015Z,99284.03
2022-11-22T04:23:01.166Z,99275.19
2022-11-22T04:33:02.998Z,99278.25
2022-11-22T04:43:23.880Z,99284.63
2022-11-22T04:53:25.973Z,99284.44
2022-11-22T05:03:27.608Z,99265.69
2022-11-22T05:13:40.442Z,99299.22
2022-11-22T05:23:56.400Z,99296.31
2022-11-22T05:33:58.212Z,99296.84
2022-11-22T05:43:59.808Z,99300.81
2022-11-22T05:54:03.100Z,99277.50
2022-11-22T06:04:06.141Z,99316.94
2022-11-22T06:14:09.268Z,99335.03
2022-11-22T06:24:30.587Z,99329.94
2022-11-22T06:34:32.331Z,99333.78
2022-11-22T06:44:34.401Z,99320.63
2022-11-22T06:54:39.411Z,99328.97
2022-11-22T07:05:02.283Z,99314.34
2022-11-22T07:15:03.351Z,99328.34
2022-11-22T07:25:07.213Z,99316.31
2022-11-22T07:35:10.658Z,99329.91
2022-11-22T07:45:14.353Z,99327.88
2022-11-22T07:55:17.099Z,99301.41
2022-11-22T08:05:19.761Z,99330.72
2022-11-22T08:15:21.448Z,99310.38
2022-11-22T08:25:23.159Z,99300.31
2022-11-22T08:35:26.864Z,99286.38
2022-11-22T08:45:30.470Z,99308.78
2022-11-22T08:55:35.358Z,99309.84
2022-11-22T09:16:14.954Z,99304.16
2022-11-22T09:26:26.277Z,99279.38
2022-11-22T09:36:28.377Z,99271.03
2022-11-22T09:46:49.081Z,99269.34
2022-11-22T09:57:01.937Z,99258.28
2022-11-22T10:07:15.163Z,99212.72
2022-11-22T10:17:36.248Z,99227.03
2022-11-22T10:27:41.215Z,99206.94
2022-11-22T10:38:03.354Z,99222.91
2022-11-22T10:48:26.100Z,99195.72
2022-11-22T10:58:46.514Z,99184.59
2022-11-22T11:19:30.492Z,99144.09
2022-11-22T11:29:41.520Z,99128.47
2022-11-22T11:39:47.595Z,99114.22
2022-11-22T11:49:53.288Z,99091.75
2022-11-22T12:00:02.616Z,99074.69
2022-11-22T12:10:42.588Z,99068.22
2022-11-22T12:21:00.539Z,99047.88
2022-11-22T12:31:03.110Z,99040.38
2022-11-22T12:41:10.530Z,99034.44
2022-11-22T12:51:28.470Z,99029.44
2022-11-22T13:01:47.010Z,99020.03
2022-11-22T13:11:59.962Z,99009.09
2022-11-22T13:22:33.319Z,99010.81
2022-11-22T13:32:36.288Z,99023.69
2022-11-22T13:42:38.131Z,99024.59
2022-11-22T13:53:16.924Z,99021.19
2022-11-22T14:03:38.866Z,99009.25
2022-11-22T14:13:48.483Z,99017.81
2022-11-22T14:24:14.039Z,98991.38
2022-11-22T14:34:24.741Z,99004.16
2022-11-22T14:44:35.617Z,98997.34
2022-11-22T14:54:52.519Z,99004.16
2022-11-22T15:09:11.960Z,99004.16
2022-11-22T15:57:26.273Z,98988.81
2022-11-22T16:07:37.610Z,98985.38
2022-11-22T16:17:51.186Z,98973.47
2022-11-22T16:27:55.744Z,98978.56
2022-11-22T16:37:57.826Z,98967.50
2022-11-22T16:48:24.505Z,98958.13
2022-11-22T16:58:25.646Z,98967.53
2022-11-22T17:08:28.912Z,98956.47
2022-11-22T17:18:31.040Z,98956.44
2022-11-22T17:28:33.299Z,98947.94
2022-11-22T17:38:37.375Z,98930.91
2022-11-22T17:48:41.774Z,98939.44
2022-11-22T17:58:43.801Z,98925.78
2022-11-22T18:08:47.362Z,98934.28
2022-11-22T18:18:58.241Z,98925.75
2022-11-22T18:29:35.568Z,98912.09
2022-11-22T18:39:26.059Z,98900.94
2022-11-22T18:49:28.279Z,98888.16
2022-11-22T18:59:31.447Z,98876.16
2022-11-22T19:09:37.242Z,98853.09
2022-11-22T19:19:39.673Z,98847.13
2022-11-22T19:29:43.259Z,98853.06
2022-11-22T19:39:49.687Z,98841.16
2022-11-22T19:49:52.003Z,98825.84
2022-11-22T20:00:00.204Z,98809.63
2022-11-22T20:10:08.512Z,98808.75
2022-11-22T20:20:11.085Z,98805.31
2022-11-22T20:30:14.906Z,98812.19
2022-11-22T20:40:17.100Z,98819.88
2022-11-22T20:50:21.573Z,98809.66
2022-11-22T21:00:24.614Z,98811.38
2022-11-22T21:10:31.780Z,98813.13
2022-11-22T21:20:35.921Z,98801.19
2022-11-22T21:30:38.270Z,98804.63
2022-11-22T21:40:40.125Z,98813.22
2022-11-22T21:50:43.881Z,98797.09
2022-11-22T22:00:46.259Z,98799.66
2022-11-22T22:10:50.097Z,98807.34
2022-11-22T22:21:10.018Z,98810.72
2022-11-22T22:31:23.980Z,98815.03
2022-11-22T22:41:31.385Z,98809.91
2022-11-22T22:51:38.828Z,98811.56
2022-11-22T23:01:42.465Z,98797.97
2022-11-22T23:12:02.640Z,98808.22
2022-11-22T23:22:05.353Z,98803.09
2022-11-22T23:32:06.910Z,98794.63
2022-11-22T23:42:08.726Z,98802.31
2022-11-22T23:52:10.366Z,98781.84
